createdAt,value
2022-09-25T00:01:28.250Z,65.04
2022-09-25T00:03:54.798Z,64.70
2022-09-25T00:06:23.730Z,64.78
2022-09-25T00:08:50.776Z,65.03
2022-09-25T00:11:22.476Z,65.09
2022-09-25T00:13:49.720Z,65.20
2022-09-25T00:16:28.806Z,65.14
2022-09-25T00:19:15.612Z,65.42
2022-09-25T00:21:42.466Z,65.30
2022-09-25T00:24:10.680Z,65.54
2022-09-25T00:26:41.604Z,65.69
2022-09-25T00:29:12.711Z,65.82
2022-09-25T00:31:39.084Z,66.08
2022-09-25T00:34:05.925Z,65.93
2022-09-25T00:36:33.424Z,65.99
2022-09-25T00:39:00.179Z,66.09
2022-09-25T00:41:28.418Z,66.13
2022-09-25T00:43:57.475Z,66.06
2022-09-25T00:46:36.491Z,66.13
2022-09-25T00:49:12.735Z,66.05
2022-09-25T00:51:46.345Z,66.03
2022-09-25T00:54:31.459Z,66.08
2022-09-25T00:57:03.313Z,66.25
2022-09-25T00:59:33.376Z,66.52
2022-09-25T01:02:00.066Z,66.54
2022-09-25T01:04:30.912Z,66.70
2022-09-25T01:06:58.181Z,66.40
2022-09-25T01:09:24.596Z,66.58
2022-09-25T01:11:51.338Z,66.74
2022-09-25T01:14:17.859Z,66.62
2022-09-25T01:16:57.696Z,66.46
2022-09-25T01:19:52.800Z,66.72
2022-09-25T01:22:42.241Z,66.13
2022-09-25T01:25:35.975Z,66.50
2022-09-25T01:28:20.138Z,66.06
2022-09-25T01:30:52.932Z,66.34
2022-09-25T01:33:34.169Z,66.13
2022-09-25T01:36:11.693Z,65.96
2022-09-25T01:38:52.025Z,66.19
2022-09-25T01:41:35.575Z,66.14
2022-09-25T01:44:13.527Z,66.03
2022-09-25T01:46:47.586Z,66.11
2022-09-25T01:49:22.467Z,65.88
2022-09-25T01:51:52.222Z,65.89
2022-09-25T01:54:28.034Z,65.88
2022-09-25T01:56:59.827Z,65.82
2022-09-25T01:59:45.188Z,65.97
2022-09-25T02:02:19.143Z,66.06
2022-09-25T02:05:02.172Z,66.18
2022-09-25T02:07:36.182Z,66.15
2022-09-25T02:10:12.911Z,66.01
2022-09-25T02:12:46.414Z,65.92
2022-09-25T02:15:29.566Z,65.84
2022-09-25T02:18:28.476Z,65.84
2022-09-25T02:21:02.644Z,65.85
2022-09-25T02:23:44.955Z,65.72
2022-09-25T02:26:17.975Z,65.88
2022-09-25T02:28:44.330Z,65.88
2022-09-25T02:31:14.388Z,65.70
2022-09-25T02:33:40.945Z,65.95
2022-09-25T02:36:07.647Z,65.80
2022-09-25T02:38:35.603Z,65.44
2022-09-25T02:41:30.033Z,65.60
2022-09-25T02:44:00.954Z,65.66
2022-09-25T02:46:45.537Z,65.35
2022-09-25T02:49:53.245Z,65.17
2022-09-25T02:52:27.868Z,65.23
2022-09-25T02:55:10.853Z,64.99
2022-09-25T02:57:58.374Z,64.76
2022-09-25T03:00:25.101Z,64.97
2022-09-25T03:02:56.313Z,64.89
2022-09-25T03:05:25.048Z,65.26
2022-09-25T03:08:12.087Z,64.87
2022-09-25T03:10:38.479Z,65.16
2022-09-25T03:13:23.002Z,65.24
2022-09-25T03:15:59.459Z,65.12
2022-09-25T03:18:26.802Z,65.46
2022-09-25T03:20:53.221Z,65.49
2022-09-25T03:23:19.674Z,65.55
2022-09-25T03:25:49.956Z,65.80
2022-09-25T03:28:16.820Z,65.68
2022-09-25T03:30:43.301Z,65.90
2022-09-25T03:33:11.878Z,65.84
2022-09-25T03:35:39.619Z,65.88
2022-09-25T03:38:10.465Z,66.15
2022-09-25T03:40:36.892Z,66.01
2022-09-25T03:45:31.400Z,65.82
2022-09-25T03:47:57.718Z,66.28
2022-09-25T03:50:24.098Z,66.37
2022-09-25T03:52:50.432Z,66.32
2022-09-25T03:55:17.253Z,66.50
2022-09-25T03:57:43.597Z,66.52
2022-09-25T04:00:10.530Z,66.56
2022-09-25T04:02:36.954Z,66.37
2022-09-25T04:05:04.103Z,66.23
2022-09-25T04:07:30.491Z,66.43
2022-09-25T04:09:56.814Z,66.50
2022-09-25T04:12:23.153Z,66.75
2022-09-25T04:14:49.478Z,66.69
2022-09-25T04:17:15.848Z,66.83
2022-09-25T04:19:42.180Z,67.06
2022-09-25T04:22:08.568Z,67.06
2022-09-25T04:24:50.055Z,66.96
2022-09-25T04:27:22.088Z,67.06
2022-09-25T04:29:49.547Z,67.14
2022-09-25T04:32:35.728Z,67.00
2022-09-25T04:35:02.813Z,66.99
2022-09-25T04:37:29.246Z,66.85
2022-09-25T04:39:56.863Z,67.29
2022-09-25T04:42:26.686Z,66.95
2022-09-25T04:44:54.535Z,67.02
2022-09-25T04:47:26.875Z,66.52
2022-09-25T04:49:53.194Z,66.83
2022-09-25T04:52:20.004Z,66.81
2022-09-25T04:54:47.563Z,67.03
2022-09-25T04:57:38.754Z,66.56
2022-09-25T05:00:07.006Z,66.87
2022-09-25T05:02:33.462Z,66.96
2022-09-25T05:04:59.920Z,67.31
2022-09-25T05:07:26.345Z,67.03
2022-09-25T05:09:52.670Z,67.36
2022-09-25T05:12:19.970Z,67.39
2022-09-25T05:14:46.743Z,67.43
2022-09-25T05:17:13.199Z,67.56
2022-09-25T05:19:40.230Z,67.57
2022-09-25T05:22:06.620Z,67.68
2022-09-25T05:24:33.059Z,67.54
2022-09-25T05:26:59.484Z,67.63
2022-09-25T05:29:25.823Z,67.61
2022-09-25T05:31:52.229Z,67.91
2022-09-25T05:34:18.677Z,67.97
2022-09-25T05:36:45.193Z,67.86
2022-09-25T05:39:14.477Z,68.18
2022-09-25T05:41:41.415Z,68.08
2022-09-25T05:44:09.793Z,68.08
2022-09-25T05:46:36.972Z,68.15
2022-09-25T05:49:03.924Z,68.24
2022-09-25T05:51:31.276Z,68.45
2022-09-25T05:53:57.832Z,68.46
2022-09-25T05:56:24.714Z,68.52
2022-09-25T05:58:52.823Z,68.54
2022-09-25T06:01:19.750Z,68.78
2022-09-25T06:03:46.454Z,68.59
2022-09-25T06:06:12.783Z,68.74
2022-09-25T06:08:39.317Z,68.59
2022-09-25T06:11:06.673Z,68.97
2022-09-25T06:13:34.456Z,69.27
2022-09-25T06:16:01.622Z,69.36
2022-09-25T06:18:28.121Z,69.39
2022-09-25T06:21:02.985Z,69.40
2022-09-25T06:23:30.324Z,69.38
2022-09-25T06:26:03.986Z,69.29
2022-09-25T06:28:30.985Z,69.50
2022-09-25T06:31:00.693Z,69.41
2022-09-25T06:33:27.138Z,69.56
2022-09-25T06:35:53.477Z,69.61
2022-09-25T06:38:19.864Z,69.73
2022-09-25T06:40:46.247Z,69.74
2022-09-25T06:43:15.783Z,69.68
2022-09-25T06:45:43.249Z,69.69
2022-09-25T06:48:12.994Z,69.59
2022-09-25T06:50:42.610Z,69.56
2022-09-25T06:53:11.140Z,69.25
2022-09-25T06:55:38.390Z,69.43
2022-09-25T06:58:06.383Z,69.27
2022-09-25T07:00:33.230Z,69.40
2022-09-25T07:03:19.060Z,69.36
2022-09-25T07:05:47.932Z,69.22
2022-09-25T07:08:16.769Z,69.10
2022-09-25T07:10:54.205Z,69.27
2022-09-25T07:13:24.487Z,69.31
2022-09-25T07:15:59.067Z,69.31
2022-09-25T07:18:26.408Z,69.58
2022-09-25T07:20:54.209Z,69.59
2022-09-25T07:23:22.312Z,69.31
2022-09-25T07:25:49.582Z,69.09
2022-09-25T07:28:19.001Z,68.88
2022-09-25T07:30:46.659Z,68.85
2022-09-25T07:33:13.123Z,68.61
2022-09-25T07:35:43.030Z,68.73
2022-09-25T07:38:10.704Z,68.66
2022-09-25T07:40:37.538Z,68.63
2022-09-25T07:43:05.530Z,68.67
2022-09-25T07:45:32.591Z,68.78
2022-09-25T07:48:02.937Z,68.57
2022-09-25T07:50:31.649Z,68.69
2022-09-25T07:52:58.693Z,68.61
2022-09-25T07:55:28.903Z,68.46
2022-09-25T07:57:59.372Z,67.84
2022-09-25T08:00:27.472Z,67.57
2022-09-25T08:02:59.492Z,67.12
2022-09-25T08:05:27.268Z,67.12
2022-09-25T08:07:54.451Z,67.08
2022-09-25T08:10:22.059Z,67.03
2022-09-25T08:20:13.799Z,65.32
2022-09-25T08:22:40.167Z,64.90
2022-09-25T08:25:06.871Z,65.01
2022-09-25T08:27:43.241Z,64.86
2022-09-25T08:30:11.108Z,64.33
2022-09-25T08:32:37.536Z,63.70
2022-09-25T08:35:04.956Z,63.55
2022-09-25T08:37:32.085Z,63.25
2022-09-25T08:40:01.428Z,63.10
2022-09-25T08:42:36.278Z,63.27
2022-09-25T08:45:30.906Z,62.64
2022-09-25T08:48:17.400Z,62.58
2022-09-25T08:50:43.662Z,63.30
2022-09-25T08:53:24.312Z,63.10
2022-09-25T08:56:09.692Z,62.36
2022-09-25T08:58:43.167Z,62.46
2022-09-25T09:01:19.722Z,62.66
2022-09-25T09:03:57.381Z,62.68
2022-09-25T09:06:27.063Z,62.39
2022-09-25T09:09:02.136Z,61.56
2022-09-25T09:11:49.763Z,61.39
2022-09-25T09:14:20.460Z,61.07
2022-09-25T09:16:56.043Z,60.58
2022-09-25T09:19:22.391Z,59.54
2022-09-25T09:22:11.092Z,59.33
2022-09-25T09:24:56.179Z,58.99
2022-09-25T09:28:06.983Z,59.00
2022-09-25T09:31:10.794Z,58.99
2022-09-25T09:34:03.950Z,58.53
2022-09-25T09:36:50.703Z,58.88
2022-09-25T09:39:24.728Z,58.34
2022-09-25T09:42:17.984Z,58.05
2022-09-25T09:45:09.095Z,57.75
2022-09-25T09:48:02.402Z,56.85
2022-09-25T09:50:47.216Z,56.39
2022-09-25T09:53:19.919Z,56.01
2022-09-25T09:55:51.003Z,55.94
2022-09-25T09:58:31.369Z,55.68
2022-09-25T10:01:06.971Z,55.70
2022-09-25T10:03:45.687Z,55.77
2022-09-25T10:06:19.143Z,55.98
2022-09-25T10:08:48.256Z,55.11
2022-09-25T10:11:18.378Z,55.39
2022-09-25T10:13:45.616Z,54.34
2022-09-25T10:16:18.018Z,54.37
2022-09-25T10:19:01.125Z,54.14
2022-09-25T10:21:31.791Z,54.13
2022-09-25T10:23:59.147Z,53.20
2022-09-25T10:26:28.642Z,52.49
2022-09-25T10:29:15.879Z,52.13
2022-09-25T10:31:42.451Z,51.30
2022-09-25T10:34:17.730Z,51.97
2022-09-25T10:36:49.817Z,51.88
2022-09-25T10:39:51.312Z,51.80
2022-09-25T10:42:33.076Z,52.20
2022-09-25T10:44:59.511Z,50.55
2022-09-25T10:47:50.217Z,50.72
2022-09-25T10:50:27.161Z,50.05
2022-09-25T10:52:59.069Z,50.43
2022-09-25T10:55:35.456Z,49.68
2022-09-25T10:58:10.897Z,49.66
2022-09-25T11:00:46.379Z,49.54
2022-09-25T11:03:25.455Z,50.26
2022-09-25T11:05:58.168Z,50.87
2022-09-25T11:08:30.105Z,50.67
2022-09-25T11:10:58.789Z,49.97
2022-09-25T11:13:29.032Z,49.41
2022-09-25T11:16:01.291Z,48.46
2022-09-25T11:18:49.768Z,48.77
2022-09-25T11:21:43.081Z,47.99
2022-09-25T11:24:24.985Z,48.27
2022-09-25T11:27:06.508Z,48.13
2022-09-25T11:29:51.003Z,47.64
2022-09-25T11:32:29.283Z,47.64
2022-09-25T11:35:17.537Z,47.20
2022-09-25T11:37:58.538Z,47.90
2022-09-25T11:41:19.412Z,48.35
2022-09-25T11:44:13.328Z,48.53
2022-09-25T11:46:42.479Z,48.65
2022-09-25T11:49:19.750Z,49.03
2022-09-25T11:52:16.348Z,48.92
2022-09-25T11:54:55.070Z,48.94
2022-09-25T11:57:42.752Z,48.19
2022-09-25T12:00:28.535Z,46.74
2022-09-25T12:03:32.134Z,46.31
2022-09-25T12:06:21.653Z,46.05
2022-09-25T12:09:04.091Z,46.09
2022-09-25T12:11:45.679Z,45.59
2022-09-25T12:14:17.542Z,45.82
2022-09-25T12:16:51.988Z,45.49
2022-09-25T12:19:46.195Z,45.66
2022-09-25T12:22:36.783Z,46.38
2022-09-25T12:25:24.949Z,46.56
2022-09-25T12:28:08.054Z,46.12
2022-09-25T12:30:40.682Z,45.91
2022-09-25T12:33:35.263Z,46.63
2022-09-25T12:36:14.772Z,46.18
2022-09-25T12:38:44.996Z,44.40
2022-09-25T12:41:24.661Z,45.15
2022-09-25T12:44:00.310Z,44.54
2022-09-25T12:46:34.223Z,44.60
2022-09-25T12:49:30.102Z,44.41
2022-09-25T12:52:03.367Z,43.73
2022-09-25T12:55:02.347Z,43.59
2022-09-25T12:57:48.162Z,42.99
2022-09-25T13:00:28.812Z,42.48
2022-09-25T13:03:17.227Z,42.09
2022-09-25T13:05:50.505Z,41.63
2022-09-25T13:08:34.161Z,41.51
2022-09-25T13:11:16.347Z,41.13
2022-09-25T13:13:46.702Z,41.47
2022-09-25T13:16:15.934Z,40.97
2022-09-25T13:19:08.938Z,41.35
2022-09-25T13:21:37.350Z,40.41
2022-09-25T13:24:10.210Z,40.68
2022-09-25T13:26:50.432Z,40.91
2022-09-25T13:29:28.188Z,41.40
2022-09-25T13:32:07.843Z,40.64
2022-09-25T13:34:38.559Z,39.78
2022-09-25T13:37:08.992Z,40.19
2022-09-25T13:40:03.677Z,40.03
2022-09-25T13:42:39.019Z,40.53
2022-09-25T13:45:32.102Z,41.09
2022-09-25T13:48:08.786Z,40.69
2022-09-25T13:50:38.833Z,39.90
2022-09-25T13:53:23.402Z,39.49
2022-09-25T13:55:49.679Z,39.33
2022-09-25T13:58:28.404Z,40.04
2022-09-25T14:00:58.663Z,40.14
2022-09-25T14:03:32.103Z,40.04
2022-09-25T14:06:00.720Z,40.43
2022-09-25T14:08:31.028Z,39.63
2022-09-25T14:11:00.888Z,39.93
2022-09-25T14:13:29.149Z,39.67
2022-09-25T14:15:59.746Z,39.53
2022-09-25T14:18:39.324Z,39.43
2022-09-25T14:21:09.582Z,38.92
2022-09-25T14:23:48.584Z,38.57
2022-09-25T14:26:26.762Z,38.20
2022-09-25T14:28:56.019Z,39.09
2022-09-25T14:31:34.988Z,39.84
2022-09-25T14:34:37.694Z,40.46
2022-09-25T14:37:14.182Z,41.31
2022-09-25T14:39:59.271Z,42.13
2022-09-25T14:43:05.771Z,41.61
2022-09-25T14:45:47.256Z,42.33
2022-09-25T14:48:24.108Z,42.03
2022-09-25T14:50:55.787Z,42.19
2022-09-25T14:53:31.471Z,42.01
2022-09-25T14:56:01.606Z,42.05
2022-09-25T14:58:32.594Z,42.22
2022-09-25T15:01:10.443Z,42.81
2022-09-25T15:03:41.905Z,42.58
2022-09-25T15:06:12.620Z,42.53
2022-09-25T15:08:42.356Z,42.31
2022-09-25T15:11:15.227Z,42.66
2022-09-25T15:13:42.492Z,42.65
2022-09-25T15:16:40.309Z,42.63
2022-09-25T15:19:16.715Z,42.46
2022-09-25T15:21:43.846Z,42.18
2022-09-25T15:24:21.563Z,42.79
2022-09-25T15:26:56.195Z,42.60
2022-09-25T15:29:23.885Z,42.12
2022-09-25T15:31:51.560Z,42.07
2022-09-25T15:34:30.254Z,42.23
2022-09-25T15:37:15.574Z,42.26
2022-09-25T15:39:43.321Z,41.42
2022-09-25T15:42:13.814Z,41.57
2022-09-25T15:44:40.504Z,41.41
2022-09-25T15:47:23.750Z,41.40
2022-09-25T15:49:50.239Z,41.48
2022-09-25T15:52:24.689Z,42.10
2022-09-25T15:54:51.184Z,42.05
2022-09-25T15:57:28.061Z,42.49
2022-09-25T16:00:13.418Z,42.26
2022-09-25T16:03:07.147Z,42.78
2022-09-25T16:05:36.042Z,42.00
2022-09-25T16:08:24.925Z,42.65
2022-09-25T16:11:10.081Z,42.59
2022-09-25T16:13:41.003Z,42.48
2022-09-25T16:16:29.848Z,42.54
2022-09-25T16:18:58.940Z,42.33
2022-09-25T16:21:30.570Z,42.17
2022-09-25T16:23:59.777Z,42.44
2022-09-25T16:26:39.242Z,42.61
2022-09-25T16:29:17.534Z,42.33
2022-09-25T16:31:45.411Z,42.13
2022-09-25T16:34:23.954Z,42.70
2022-09-25T16:36:51.348Z,42.55
2022-09-25T16:39:29.637Z,42.92
2022-09-25T16:41:56.622Z,42.71
2022-09-25T16:44:38.098Z,43.58
2022-09-25T16:47:20.153Z,43.90
2022-09-25T16:49:47.667Z,43.61
2022-09-25T17:04:46.418Z,45.17
2022-09-25T17:07:55.029Z,45.02
2022-09-25T17:13:37.572Z,45.08
2022-09-25T17:19:01.723Z,45.35
2022-09-25T17:22:02.549Z,45.48
2022-09-25T17:24:42.505Z,46.03
2022-09-25T17:27:14.339Z,45.94
2022-09-25T17:30:00.165Z,46.30
2022-09-25T17:39:36.593Z,46.61
2022-09-25T17:42:03.640Z,46.93
2022-09-25T17:44:30.618Z,47.34
2022-09-25T17:46:57.578Z,47.86
2022-09-25T17:49:25.111Z,47.90
2022-09-25T17:51:51.955Z,47.90
2022-09-25T17:54:18.934Z,48.33
2022-09-25T17:56:46.267Z,48.25
2022-09-25T17:59:13.837Z,48.46
2022-09-25T18:01:40.604Z,48.36
2022-09-25T18:04:18.058Z,48.46
2022-09-25T18:06:44.376Z,48.92
2022-09-25T18:09:10.861Z,49.06
2022-09-25T18:11:37.578Z,49.36
2022-09-25T18:14:03.901Z,49.23
2022-09-25T18:16:33.121Z,49.45
2022-09-25T18:19:18.558Z,49.08
2022-09-25T18:22:03.519Z,49.69
2022-09-25T18:24:30.041Z,49.73
2022-09-25T18:26:57.892Z,50.19
2022-09-25T18:29:25.139Z,50.28
2022-09-25T18:31:51.828Z,50.31
2022-09-25T18:34:18.258Z,50.45
2022-09-25T18:36:44.702Z,50.57
2022-09-25T18:39:13.883Z,50.62
2022-09-25T18:41:44.301Z,50.90
2022-09-25T18:44:13.233Z,51.07
2022-09-25T18:46:40.377Z,50.99
2022-09-25T18:49:07.768Z,51.11
2022-09-25T18:51:35.081Z,51.28
2022-09-25T18:54:02.185Z,51.31
2022-09-25T18:56:28.632Z,51.47
2022-09-25T18:58:55.039Z,51.62
2022-09-25T19:01:21.765Z,51.77
2022-09-25T19:03:52.484Z,51.71
2022-09-25T19:06:19.583Z,51.99
2022-09-25T19:08:55.803Z,52.09
2022-09-25T19:11:23.616Z,52.38
2022-09-25T19:13:50.107Z,52.22
2022-09-25T19:16:18.142Z,52.67
2022-09-25T19:18:45.127Z,52.78
2022-09-25T19:21:16.729Z,52.95
2022-09-25T19:23:43.758Z,53.02
2022-09-25T19:26:15.227Z,52.85
2022-09-25T19:28:42.535Z,53.50
2022-09-25T19:31:18.063Z,53.15
2022-09-25T19:33:45.344Z,53.52
2022-09-25T19:36:26.537Z,53.44
2022-09-25T19:38:54.135Z,53.67
2022-09-25T19:41:27.971Z,53.83
2022-09-25T19:43:59.049Z,53.93
2022-09-25T19:46:27.425Z,54.18
2022-09-25T19:48:54.081Z,54.32
2022-09-25T19:51:22.116Z,54.45
2022-09-25T19:53:48.800Z,54.45
2022-09-25T19:56:16.183Z,54.67
2022-09-25T19:58:43.348Z,54.63
2022-09-25T20:01:17.116Z,54.83
2022-09-25T20:03:44.036Z,55.16
2022-09-25T20:06:11.063Z,54.75
2022-09-25T20:08:38.759Z,55.32
2022-09-25T20:11:21.987Z,55.07
2022-09-25T20:13:50.752Z,55.41
2022-09-25T20:16:19.216Z,55.72
2022-09-25T20:18:50.679Z,55.30
2022-09-25T20:21:21.055Z,55.86
2022-09-25T20:23:58.625Z,55.51
2022-09-25T20:26:26.373Z,56.10
2022-09-25T20:29:01.545Z,56.00
2022-09-25T20:31:29.724Z,56.16
2022-09-25T20:33:56.194Z,56.33
2022-09-25T20:36:23.110Z,56.39
2022-09-25T20:38:54.500Z,56.15
2022-09-25T20:41:21.957Z,56.46
2022-09-25T20:43:50.896Z,56.65
2022-09-25T20:46:20.308Z,56.60
2022-09-25T20:48:48.817Z,56.97
2022-09-25T20:51:19.101Z,56.88
2022-09-25T20:53:59.831Z,56.82
2022-09-25T20:56:27.941Z,57.13
2022-09-25T20:58:55.814Z,57.12
2022-09-25T21:01:26.074Z,57.07
2022-09-25T21:03:53.863Z,57.50
2022-09-25T21:06:25.311Z,57.64
2022-09-25T21:09:03.539Z,57.33
2022-09-25T21:11:31.976Z,57.64
2022-09-25T21:14:02.423Z,57.63
2022-09-25T21:16:30.587Z,57.86
2022-09-25T21:19:00.264Z,57.91
2022-09-25T21:21:28.207Z,57.69
2022-09-25T21:23:56.977Z,57.94
2022-09-25T21:26:26.428Z,58.10
2022-09-25T21:28:54.880Z,58.17
2022-09-25T21:31:24.037Z,58.30
2022-09-25T21:33:52.842Z,58.57
2022-09-25T21:36:19.731Z,58.27
2022-09-25T21:38:46.119Z,58.84
2022-09-25T21:41:14.922Z,58.65
2022-09-25T21:43:42.248Z,58.86
2022-09-25T21:46:12.834Z,58.60
2022-09-25T21:48:41.153Z,58.88
2022-09-25T21:51:08.330Z,58.64
2022-09-25T21:53:34.859Z,59.08
2022-09-25T21:56:03.335Z,59.06
2022-09-25T21:58:30.159Z,59.29
2022-09-25T22:01:27.530Z,58.95
2022-09-25T22:03:56.457Z,58.96
2022-09-25T22:06:26.253Z,59.04
2022-09-25T22:08:54.945Z,59.09
2022-09-25T22:11:21.859Z,59.34
2022-09-25T22:13:50.127Z,59.05
2022-09-25T22:16:38.088Z,58.95
2022-09-25T22:19:17.103Z,59.20
2022-09-25T22:21:45.236Z,59.21
2022-09-25T22:24:12.184Z,59.54
2022-09-25T22:26:41.703Z,59.54
2022-09-25T22:29:08.876Z,59.89
2022-09-25T22:31:36.356Z,60.27
2022-09-25T22:34:05.523Z,60.07
2022-09-25T22:36:35.066Z,60.08
2022-09-25T22:39:02.568Z,60.07
2022-09-25T22:41:29.006Z,59.89
2022-09-25T22:43:58.411Z,60.00
2022-09-25T22:46:26.069Z,59.93
2022-09-25T22:48:52.487Z,59.97
2022-09-25T22:51:24.529Z,59.46
2022-09-25T22:53:52.503Z,60.00
2022-09-25T22:56:22.190Z,59.91
2022-09-25T22:58:51.594Z,59.94
2022-09-25T23:01:44.177Z,59.97
2022-09-25T23:04:14.088Z,60.08
2022-09-25T23:06:40.902Z,59.98
2022-09-25T23:09:10.987Z,60.10
2022-09-25T23:11:37.697Z,60.14
2022-09-25T23:14:11.263Z,60.18
2022-09-25T23:16:37.734Z,60.18
2022-09-25T23:19:04.423Z,60.40
2022-09-25T23:21:31.700Z,60.56
2022-09-25T23:24:00.412Z,60.57
2022-09-25T23:26:27.876Z,60.86
2022-09-25T23:28:54.277Z,60.79
2022-09-25T23:31:21.842Z,60.89
2022-09-25T23:33:48.388Z,60.93
2022-09-25T23:36:18.053Z,60.82
2022-09-25T23:38:45.210Z,60.94
2022-09-25T23:41:16.527Z,60.92
2022-09-25T23:43:43.674Z,61.22
2022-09-25T23:46:10.720Z,61.21
2022-09-25T23:48:37.219Z,61.27
2022-09-25T23:51:03.638Z,61.23
2022-09-25T23:53:30.120Z,61.18
2022-09-25T23:55:56.859Z,61.24
2022-09-25T23:58:23.260Z,61.33
